Nearby METAR Reports

(scroll for additional cities)

 

KPSP - Palm Springs, California, USA
Distance from station: WNW 7mi, 11km
Updated: Tue, 22-Jun-2021 5:53am PDT
Clear
Clear
 Wind from calm
Wind: Calm
Temperature: 84°F , 29°C
Dew Point: 52°F , 11°C
Humidity: 33%
Barometer: 29.80 inHg , 1009.1 hPa
Clouds: Clear
Visibility: 10 miles , 16 km
2021/06/22 12:53 KPSP 221253Z 00000KT 10SM CLR 29/11 A2980 RMK AO2 SLP087 T02890106 $
KTRM - Thermal/Palm Spg, California, USA
Distance from station: SE 16mi, 26km
Updated: Tue, 22-Jun-2021 5:52am PDT
Clear
Clear
 Wind from W
Wind: W 6 mph , 9 km/h
Temperature: 77°F , 25°C
Dew Point: 50°F , 10°C
Humidity: 39%
Barometer: 29.75 inHg , 1007.5 hPa
Clouds: Clear
Visibility: 10 miles , 16 km
2021/06/22 12:52 KTRM 221252Z AUTO 26005KT 10SM CLR 25/10 A2975 RMK AO2 SLP076 T02500100 $
 
KNXP - Twentynine Palms, California, USA
Distance from station: NNE 37mi, 60km
Updated: Tue, 22-Jun-2021 5:56am PDT
Clear
Clear
 Wind from NW
Wind: NW 7 mph , 11 km/h
Temperature: 81°F , 27°C
Dew Point: 28°F , -2°C
Humidity: 15%
Barometer: 29.97 inHg , 1014.9 hPa
Clouds: Clear
Visibility: 10 miles , 16 km
2021/06/22 12:56 KNXP 221256Z AUTO 31006KT 10SM CLR 27/M02 A2997 RMK AO2 SLP105 T02721022 $
KL35 - Big Bear City, California, USA
Distance from station: NW 43mi, 69km
Updated: Tue, 22-Jun-2021 6:15am PDT
Clear
Clear
 Wind from calm
Wind: Calm
Temperature: 59°F , 15°C
Dew Point: 30°F , -1°C
Humidity: 34%
Barometer: 30.26 inHg , 1024.7 hPa
Clouds: Clear
Visibility: 10 miles , 16 km
2021/06/22 13:15 KL35 221315Z AUTO 00000KT 10SM CLR 15/M01 A3026 RMK AO2
 
KF70 - Murrieta/Temecula, California, USA
Distance from station: WSW 45mi, 73km
Updated: Tue, 22-Jun-2021 12:15am PDT
NOT Current
Clear
Clear
 Wind from S
Wind: S 7 mph , 11 km/h
Temperature: 61°F , 16°C
Dew Point: 57°F , 14°C
Humidity: 88%
Barometer: 29.98 inHg , 1015.2 hPa
Clouds: Clear
Visibility: 10 miles , 16 km
2021/06/22 07:15 KF70 220715Z AUTO 19006KT 10SM CLR 16/14 A2998 RMK AO1
KRIV - Riverside/March, California, USA
Distance from station: W 51mi, 82km
Updated: Tue, 22-Jun-2021 5:56am PDT
Clear
Clear
 Wind from calm
Wind: Calm
Temperature: 59°F , 15°C
Dew Point: 55°F , 13°C
Humidity: 88%
Barometer: 29.93 inHg , 1013.5 hPa
Clouds: Clear
Visibility: 10 miles , 16 km
2021/06/22 12:56 KRIV 221256Z AUTO 00000KT 10SM CLR 15/13 A2993 RMK AO2 SLP122 T01490126
 
KSBD - San Bernardino, California, USA
Distance from station: WNW 54mi, 86km
Updated: Tue, 22-Jun-2021 5:40am PDT
Clear
Clear
 Wind from calm
Wind: Calm
Temperature: 64°F , 18°C
Dew Point: 55°F , 13°C
Humidity: 73%
Barometer: 29.94 inHg , 1013.9 hPa
Clouds: Clear
Visibility: 10 miles , 16 km
2021/06/22 12:40 KSBD 221240Z AUTO 00000KT 10SM CLR 18/13 A2994 RMK AO2 T01770131
KRNM - Ramona, California, USA
Distance from station: SSW 60mi, 96km
Updated: Tue, 22-Jun-2021 5:53am PDT
Mist, Overcast
Mist, Overcast
 Wind from W
Wind: W 5 mph , 7 km/h
Temperature: 59°F , 15°C
Dew Point: 57°F , 14°C
Humidity: 94%
Barometer: 29.94 inHg , 1013.9 hPa
Summary: Mist
Clouds: Overcast
Visibility: 3 miles , 5 km
Cloud details: Overcast 200 ft
2021/06/22 12:53 KRNM 221253Z AUTO 26004KT 3SM BR OVC002 15/14 A2994 RMK AO2 SLP123 T01500144
 
KRAL - Riverside, California, USA
Distance from station: W 62mi, 100km
Updated: Tue, 22-Jun-2021 5:53am PDT
Clear
Clear
 Wind from calm
Wind: Calm
Temperature: 61°F , 16°C
Dew Point: 57°F , 14°C
Humidity: 88%
Barometer: 29.93 inHg , 1013.5 hPa
Clouds: Clear
Visibility: 9 miles , 14 km
2021/06/22 12:53 KRAL 221253Z AUTO 00000KT 9SM CLR 16/14 A2993 RMK AO2 SLP120 T01610139
KOKB - Oceanside, California, USA
Distance from station: SW 68mi, 109km
Updated: Tue, 22-Jun-2021 5:52am PDT
Overcast
Overcast
 Wind from NW
Wind: NW 3 mph , 6 km/h
Temperature: 63°F , 17°C
Dew Point: 59°F , 15°C
Humidity: 88%
Barometer: 29.91 inHg , 1012.9 hPa
Clouds: Overcast
Visibility: 9 miles , 14 km
Cloud details: Overcast 1100 ft
2021/06/22 12:52 KOKB 221252Z AUTO 32003KT 9SM OVC011 17/15 A2991 RMK AO2 SLP128 T01720150
 
KONT - Ontario, California, USA
Distance from station: WNW 71mi, 114km
Updated: Tue, 22-Jun-2021 5:53am PDT
Haze, Few clouds
Haze, Few clouds
 Wind from calm
Wind: Calm
Temperature: 63°F , 17°C
Dew Point: 55°F , 13°C
Humidity: 77%
Barometer: 29.93 inHg , 1013.5 hPa
Summary: Haze
Clouds: Few Clouds
Visibility: 6 miles , 10 km
Cloud details: Few Clouds 15000 ft
Few Clouds 25000 ft
2021/06/22 12:53 KONT 221253Z 00000KT 6SM HZ FEW150 FEW250 17/13 A2993 RMK AO2 SLP120 ACC NE T01670133
KNJK - El Centro Naf, California, USA
Distance from station: SSE 78mi, 126km
Updated: Tue, 22-Jun-2021 5:56am PDT
Mostly Cloudy
Mostly Cloudy
 Wind from calm
Wind: Calm
Temperature: 82°F , 28°C
Heat Index: 83°F , 28°C
Dew Point: 63°F , 17°C
Humidity: 51%
Barometer: 29.76 inHg , 1007.8 hPa
Clouds: Mostly Cloudy
Visibility: 10 miles , 16 km
Cloud details: Mostly Cloudy 18000 ft
Mostly Cloudy 25000 ft
2021/06/22 12:56 KNJK 221256Z 00000KT 10SM BKN180 BKN250 28/17 A2976 RMK AO2 SLP094 T02780172 $
 
KSEE - San Diego/Santee, California, USA
Distance from station: SSW 74mi, 120km
Updated: Tue, 22-Jun-2021 6:15am PDT
Overcast
Overcast
 Wind from calm
Wind: Calm
Temperature: 64°F , 18°C
Dew Point: 59°F , 15°C
Humidity: 83%
Barometer: 29.92 inHg , 1013.2 hPa
Clouds: Overcast
Visibility: 10 miles , 16 km
Cloud details: Overcast 1300 ft
2021/06/22 13:15 KSEE 221315Z AUTO 00000KT 10SM OVC013 18/15 A2992 RMK AO2
KCNO - Chino, California, USA
Distance from station: W 72mi, 116km
Updated: Tue, 22-Jun-2021 5:53am PDT
Haze, Clear
Haze, Clear
 Wind from calm
Wind: Calm
Temperature: 61°F , 16°C
Dew Point: 55°F , 13°C
Humidity: 83%
Barometer: 29.94 inHg , 1013.9 hPa
Summary: Haze
Clouds: Clear
Visibility: 5 miles , 8 km
2021/06/22 12:53 KCNO 221253Z AUTO 00000KT 5SM HZ CLR 16/13 A2994 RMK AO2 SLP133 T01610133

Metar display script from Saratoga-Weather.org